createdAt,value
2022-10-26T00:01:23.126Z,100.00
2022-10-26T00:03:52.090Z,100.00
2022-10-26T00:06:22.616Z,100.00
2022-10-26T00:08:51.912Z,100.00
2022-10-26T00:11:20.306Z,100.00
2022-10-26T00:13:48.907Z,100.00
2022-10-26T00:16:27.668Z,100.00
2022-10-26T00:18:56.379Z,100.00
2022-10-26T00:21:24.480Z,100.00
2022-10-26T00:23:52.675Z,100.00
2022-10-26T00:26:21.158Z,100.00
2022-10-26T00:28:49.221Z,100.00
2022-10-26T00:31:17.770Z,100.00
2022-10-26T00:33:46.725Z,100.00
2022-10-26T00:36:16.842Z,100.00
2022-10-26T00:38:50.286Z,100.00
2022-10-26T00:41:20.424Z,100.00
2022-10-26T00:43:49.194Z,100.00
2022-10-26T00:46:23.007Z,100.00
2022-10-26T00:48:55.731Z,100.00
2022-10-26T00:51:33.845Z,100.00
2022-10-26T00:54:06.262Z,100.00
2022-10-26T00:56:35.743Z,100.00
2022-10-26T00:59:08.093Z,100.00
2022-10-26T01:01:41.107Z,100.00
2022-10-26T01:04:10.075Z,100.00
2022-10-26T01:06:39.022Z,100.00
2022-10-26T01:09:07.532Z,100.00
2022-10-26T01:11:35.902Z,100.00
2022-10-26T01:14:08.250Z,100.00
2022-10-26T01:17:08.605Z,100.00
2022-10-26T01:19:57.686Z,100.00
2022-10-26T01:22:44.174Z,100.00
2022-10-26T01:25:50.778Z,100.00
2022-10-26T01:28:45.280Z,100.00
2022-10-26T01:31:21.346Z,100.00
2022-10-26T01:34:01.428Z,100.00
2022-10-26T01:36:44.705Z,100.00
2022-10-26T01:39:29.969Z,100.00
2022-10-26T01:42:01.862Z,100.00
2022-10-26T01:44:39.603Z,100.00
2022-10-26T01:47:11.639Z,100.00
2022-10-26T01:49:49.563Z,100.00
2022-10-26T01:52:21.491Z,100.00
2022-10-26T01:54:50.191Z,100.00
2022-10-26T01:57:21.618Z,100.00
2022-10-26T02:00:05.590Z,100.00
2022-10-26T02:03:30.991Z,100.00
2022-10-26T02:06:29.106Z,100.00
2022-10-26T02:09:05.669Z,100.00
2022-10-26T02:11:42.679Z,100.00
2022-10-26T02:14:40.095Z,100.00
2022-10-26T02:17:29.099Z,100.00
2022-10-26T02:20:01.526Z,100.00
2022-10-26T02:22:38.860Z,100.00
2022-10-26T02:25:16.035Z,100.00
2022-10-26T02:27:49.474Z,100.00
2022-10-26T02:30:18.856Z,100.00
2022-10-26T02:32:51.109Z,100.00
2022-10-26T02:35:22.582Z,100.00
2022-10-26T02:37:52.802Z,100.00
2022-10-26T02:40:26.393Z,100.00
2022-10-26T02:42:59.942Z,100.00
2022-10-26T02:45:34.446Z,100.00
2022-10-26T02:48:03.024Z,100.00
2022-10-26T02:50:44.514Z,100.00
2022-10-26T02:53:35.529Z,100.00
2022-10-26T02:56:11.431Z,100.00
2022-10-26T02:58:43.832Z,100.00
2022-10-26T03:01:14.202Z,100.00
2022-10-26T03:03:42.451Z,100.00
2022-10-26T03:06:10.477Z,100.00
2022-10-26T03:08:38.903Z,100.00
2022-10-26T03:11:07.283Z,100.00
2022-10-26T03:13:35.343Z,100.00
2022-10-26T03:16:03.688Z,100.00
2022-10-26T03:18:31.855Z,100.00
2022-10-26T03:21:00.046Z,100.00
2022-10-26T03:23:28.370Z,100.00
2022-10-26T03:25:57.829Z,100.00
2022-10-26T03:28:26.406Z,100.00
2022-10-26T03:30:55.430Z,100.00
2022-10-26T03:33:26.988Z,100.00
2022-10-26T03:35:57.179Z,100.00
2022-10-26T03:38:25.375Z,100.00
2022-10-26T03:40:53.444Z,100.00
2022-10-26T03:43:21.872Z,100.00
2022-10-26T03:45:49.936Z,100.00
2022-10-26T03:48:18.010Z,100.00
2022-10-26T03:50:46.511Z,100.00
2022-10-26T03:53:14.561Z,100.00
2022-10-26T03:55:46.514Z,100.00
2022-10-26T03:58:15.066Z,100.00
2022-10-26T04:00:43.110Z,100.00
2022-10-26T04:03:11.497Z,100.00
2022-10-26T04:05:39.640Z,100.00
2022-10-26T04:08:08.734Z,100.00
2022-10-26T04:10:37.310Z,100.00
2022-10-26T04:13:05.525Z,100.00
2022-10-26T04:15:33.598Z,100.00
2022-10-26T04:18:02.947Z,100.00
2022-10-26T04:20:32.987Z,100.00
2022-10-26T04:23:04.209Z,100.00
2022-10-26T04:25:33.854Z,100.00
2022-10-26T04:28:04.706Z,100.00
2022-10-26T04:30:34.529Z,100.00
2022-10-26T04:33:04.451Z,100.00
2022-10-26T04:35:34.950Z,100.00
2022-10-26T04:38:05.999Z,100.00
2022-10-26T04:40:34.781Z,100.00
2022-10-26T04:43:02.881Z,100.00
2022-10-26T04:45:31.568Z,100.00
2022-10-26T04:48:08.480Z,100.00
2022-10-26T04:50:38.134Z,100.00
2022-10-26T04:53:07.730Z,100.00
2022-10-26T04:55:35.877Z,100.00
2022-10-26T04:58:04.989Z,100.00
2022-10-26T05:00:34.090Z,100.00
2022-10-26T05:03:03.819Z,100.00
2022-10-26T05:05:35.693Z,100.00
2022-10-26T05:08:04.250Z,100.00
2022-10-26T05:10:32.782Z,100.00
2022-10-26T05:13:02.140Z,100.00
2022-10-26T05:15:30.924Z,100.00
2022-10-26T05:18:02.850Z,100.00
2022-10-26T05:20:33.285Z,100.00
2022-10-26T05:23:03.854Z,100.00
2022-10-26T05:25:35.490Z,100.00
2022-10-26T05:28:08.009Z,100.00
2022-10-26T05:30:38.365Z,100.00
2022-10-26T05:33:07.676Z,100.00
2022-10-26T05:35:36.684Z,100.00
2022-10-26T05:38:09.555Z,100.00
2022-10-26T05:40:37.968Z,100.00
2022-10-26T05:43:06.006Z,100.00
2022-10-26T05:45:34.151Z,100.00
2022-10-26T05:48:03.064Z,100.00
2022-10-26T05:50:31.428Z,100.00
2022-10-26T05:52:59.894Z,100.00
2022-10-26T05:55:28.664Z,100.00
2022-10-26T05:57:56.997Z,100.00
2022-10-26T06:00:27.453Z,100.00
2022-10-26T06:03:14.029Z,100.00
2022-10-26T06:05:55.168Z,100.00
2022-10-26T06:08:27.249Z,100.00
2022-10-26T06:10:59.507Z,100.00
2022-10-26T06:13:28.078Z,100.00
2022-10-26T06:16:14.618Z,100.00
2022-10-26T06:19:08.343Z,100.00
2022-10-26T06:21:51.342Z,100.00
2022-10-26T06:24:45.152Z,100.00
2022-10-26T06:27:38.587Z,100.00
2022-10-26T06:30:10.268Z,100.00
2022-10-26T06:32:45.562Z,100.00
2022-10-26T06:35:27.242Z,100.00
2022-10-26T06:37:59.104Z,100.00
2022-10-26T06:40:31.127Z,100.00
2022-10-26T06:43:00.492Z,100.00
2022-10-26T06:45:29.237Z,100.00
2022-10-26T06:48:10.300Z,100.00
2022-10-26T06:50:54.493Z,100.00
2022-10-26T06:53:42.029Z,100.00
2022-10-26T06:56:14.763Z,100.00
2022-10-26T06:58:44.854Z,100.00
2022-10-26T07:01:13.457Z,100.00
2022-10-26T07:03:41.728Z,100.00
2022-10-26T07:06:10.279Z,100.00
2022-10-26T07:08:38.816Z,100.00
2022-10-26T07:11:06.977Z,100.00
2022-10-26T07:13:35.131Z,100.00
2022-10-26T07:16:03.627Z,100.00
2022-10-26T07:18:31.857Z,100.00
2022-10-26T07:21:00.089Z,100.00
2022-10-26T07:26:01.715Z,100.00
2022-10-26T07:28:30.190Z,100.00
2022-10-26T07:30:59.030Z,100.00
2022-10-26T07:33:27.166Z,100.00
2022-10-26T07:35:56.133Z,100.00
2022-10-26T07:38:24.284Z,100.00
2022-10-26T07:40:54.384Z,100.00
2022-10-26T07:43:22.844Z,100.00
2022-10-26T07:45:51.683Z,100.00
2022-10-26T07:48:20.009Z,100.00
2022-10-26T07:50:48.442Z,100.00
2022-10-26T07:53:16.593Z,100.00
2022-10-26T07:55:53.581Z,100.00
2022-10-26T07:58:26.248Z,99.78
2022-10-26T08:00:55.373Z,100.00
2022-10-26T08:03:24.102Z,97.92
2022-10-26T08:05:55.785Z,97.06
2022-10-26T08:08:24.495Z,95.12
2022-10-26T08:10:52.795Z,93.10
2022-10-26T08:13:20.871Z,93.68
2022-10-26T08:15:50.610Z,91.58
2022-10-26T08:18:18.721Z,91.62
2022-10-26T08:20:46.711Z,88.36
2022-10-26T08:23:15.214Z,86.56
2022-10-26T08:25:43.327Z,84.93
2022-10-26T08:28:11.373Z,83.65
2022-10-26T08:30:40.265Z,84.78
2022-10-26T08:33:10.416Z,82.56
2022-10-26T08:35:38.596Z,79.49
2022-10-26T08:38:07.513Z,79.74
2022-10-26T08:40:39.777Z,80.25
2022-10-26T08:43:24.088Z,76.99
2022-10-26T08:46:04.533Z,75.87
2022-10-26T08:48:38.068Z,74.53
2022-10-26T08:51:08.792Z,72.82
2022-10-26T08:54:16.085Z,74.49
2022-10-26T08:56:54.099Z,71.01
2022-10-26T08:59:44.336Z,71.03
2022-10-26T09:02:18.059Z,73.07
2022-10-26T09:04:46.833Z,69.07
2022-10-26T09:07:32.739Z,70.85
2022-10-26T09:10:10.157Z,67.28
2022-10-26T09:12:51.511Z,70.54
2022-10-26T09:15:25.854Z,70.60
2022-10-26T09:18:18.041Z,70.65
2022-10-26T09:21:05.584Z,68.84
2022-10-26T09:23:42.929Z,69.11
2022-10-26T09:26:22.304Z,66.80
2022-10-26T09:28:50.754Z,66.73
2022-10-26T09:31:19.764Z,65.36
2022-10-26T09:33:48.426Z,66.13
2022-10-26T09:36:22.284Z,67.47
2022-10-26T09:38:57.861Z,65.86
2022-10-26T09:41:46.130Z,66.22
2022-10-26T09:44:37.221Z,65.94
2022-10-26T09:47:34.282Z,66.48
2022-10-26T09:50:28.486Z,66.09
2022-10-26T09:52:58.339Z,63.61
2022-10-26T09:55:27.808Z,65.03
2022-10-26T09:58:01.437Z,65.22
2022-10-26T10:00:30.747Z,68.23
2022-10-26T10:02:59.405Z,68.96
2022-10-26T10:05:51.800Z,72.57
2022-10-26T10:08:24.652Z,73.95
2022-10-26T10:11:25.324Z,73.18
2022-10-26T10:13:53.720Z,74.68
2022-10-26T10:16:23.983Z,75.30
2022-10-26T10:18:56.284Z,77.92
2022-10-26T10:21:47.844Z,77.17
2022-10-26T10:24:26.622Z,76.80
2022-10-26T10:27:18.496Z,77.40
2022-10-26T10:29:59.705Z,77.63
2022-10-26T10:32:35.723Z,78.37
2022-10-26T10:35:30.185Z,78.32
2022-10-26T10:37:58.686Z,80.23
2022-10-26T10:40:31.933Z,81.53
2022-10-26T10:43:13.452Z,79.32
2022-10-26T10:45:48.207Z,79.38
2022-10-26T10:48:23.312Z,79.92
2022-10-26T10:51:12.417Z,80.55
2022-10-26T10:53:56.945Z,80.08
2022-10-26T10:56:43.727Z,81.66
2022-10-26T10:59:27.266Z,81.54
2022-10-26T11:02:04.287Z,82.36
2022-10-26T11:05:07.365Z,81.05
2022-10-26T11:07:46.501Z,82.74
2022-10-26T11:10:17.854Z,80.93
2022-10-26T11:12:54.871Z,81.32
2022-10-26T11:15:28.161Z,80.19
2022-10-26T11:18:09.681Z,81.25
2022-10-26T11:20:51.469Z,80.45
2022-10-26T11:23:45.189Z,80.73
2022-10-26T11:26:49.738Z,80.38
2022-10-26T11:29:23.905Z,79.14
2022-10-26T11:32:08.668Z,73.34
2022-10-26T11:34:43.034Z,71.98
2022-10-26T11:37:17.120Z,72.24
2022-10-26T11:40:14.481Z,74.59
2022-10-26T11:42:50.694Z,74.81
2022-10-26T11:45:26.555Z,74.82
2022-10-26T11:48:06.970Z,75.01
2022-10-26T11:50:39.894Z,73.10
2022-10-26T11:53:30.479Z,72.49
2022-10-26T11:55:59.773Z,70.78
2022-10-26T11:58:29.130Z,73.65
2022-10-26T12:01:14.014Z,73.85
2022-10-26T12:03:50.448Z,74.94
2022-10-26T12:06:27.328Z,75.89
2022-10-26T12:09:21.736Z,75.53
2022-10-26T12:12:07.675Z,77.48
2022-10-26T12:14:49.518Z,76.11
2022-10-26T12:17:26.564Z,73.73
2022-10-26T12:19:55.034Z,72.55
2022-10-26T12:22:32.719Z,71.27
2022-10-26T12:25:19.742Z,70.11
2022-10-26T12:30:25.822Z,71.02
2022-10-26T12:32:59.512Z,69.67
2022-10-26T12:35:31.337Z,70.67
2022-10-26T12:38:01.185Z,70.64
2022-10-26T12:40:43.030Z,69.70
2022-10-26T12:43:14.109Z,69.67
2022-10-26T12:45:46.618Z,68.84
2022-10-26T12:48:39.720Z,68.21
2022-10-26T12:51:21.684Z,68.72
2022-10-26T12:54:08.184Z,70.05
2022-10-26T12:57:09.080Z,71.10
2022-10-26T12:59:49.331Z,72.10
2022-10-26T13:02:42.914Z,71.29
2022-10-26T13:05:29.380Z,73.53
2022-10-26T13:08:03.829Z,71.08
2022-10-26T13:10:32.684Z,70.24
2022-10-26T13:13:05.405Z,69.90
2022-10-26T13:15:40.229Z,71.98
2022-10-26T13:18:18.261Z,71.46
2022-10-26T13:21:03.416Z,70.58
2022-10-26T13:23:34.133Z,69.07
2022-10-26T13:26:22.943Z,69.66
2022-10-26T13:29:00.266Z,71.63
2022-10-26T13:31:31.689Z,70.76
2022-10-26T13:34:20.773Z,69.89
2022-10-26T13:37:01.879Z,70.17
2022-10-26T13:39:43.157Z,70.54
2022-10-26T13:42:26.331Z,70.04
2022-10-26T13:45:01.017Z,70.60
2022-10-26T13:47:45.080Z,70.81
2022-10-26T13:50:20.240Z,71.97
2022-10-26T13:52:52.785Z,72.80
2022-10-26T13:55:35.846Z,72.29
2022-10-26T13:58:22.755Z,73.18
2022-10-26T14:01:21.654Z,73.36
2022-10-26T14:03:51.118Z,74.16
2022-10-26T14:06:22.188Z,74.74
2022-10-26T14:08:53.060Z,75.18
2022-10-26T14:11:28.340Z,75.67
2022-10-26T14:13:57.078Z,76.34
2022-10-26T14:16:29.454Z,77.37
2022-10-26T14:18:58.550Z,77.26
2022-10-26T14:21:26.807Z,77.29
2022-10-26T14:23:56.141Z,77.68
2022-10-26T14:26:41.396Z,79.69
2022-10-26T14:29:18.373Z,80.07
2022-10-26T14:31:49.212Z,79.47
2022-10-26T14:34:18.875Z,80.50
2022-10-26T14:36:50.204Z,79.66
2022-10-26T14:39:46.125Z,79.49
2022-10-26T14:42:31.645Z,80.91
2022-10-26T14:45:01.584Z,79.85
2022-10-26T14:47:33.755Z,81.48
2022-10-26T14:50:04.028Z,83.15
2022-10-26T14:52:37.228Z,82.81
2022-10-26T14:55:14.846Z,82.14
2022-10-26T14:57:46.313Z,82.42
2022-10-26T15:00:25.144Z,83.26
2022-10-26T15:02:58.323Z,83.48
2022-10-26T15:05:35.690Z,84.03
2022-10-26T15:08:04.516Z,83.88
2022-10-26T15:10:38.952Z,82.61
2022-10-26T15:13:29.822Z,82.51
2022-10-26T15:16:09.620Z,82.54
2022-10-26T15:18:38.845Z,83.70
2022-10-26T15:21:43.008Z,83.92
2022-10-26T15:24:20.556Z,83.82
2022-10-26T15:26:48.769Z,84.30
2022-10-26T15:29:37.338Z,85.34
2022-10-26T15:32:18.355Z,86.32
2022-10-26T15:35:06.403Z,86.74
2022-10-26T15:37:35.093Z,87.39
2022-10-26T15:40:04.647Z,86.25
2022-10-26T15:42:32.912Z,86.41
2022-10-26T15:45:01.011Z,86.64
2022-10-26T15:47:33.705Z,87.65
2022-10-26T15:50:01.955Z,88.33
2022-10-26T15:52:31.603Z,88.02
2022-10-26T15:55:00.993Z,88.42
2022-10-26T15:57:29.208Z,89.02
2022-10-26T15:59:57.771Z,87.70
2022-10-26T16:02:26.341Z,88.59
2022-10-26T16:04:55.971Z,89.42
2022-10-26T16:07:31.862Z,90.46
2022-10-26T16:10:00.220Z,91.23
2022-10-26T16:12:28.428Z,91.19
2022-10-26T16:15:05.558Z,91.15
2022-10-26T16:17:35.307Z,91.20
2022-10-26T16:20:08.887Z,90.13
2022-10-26T16:22:38.561Z,89.66
2022-10-26T16:25:07.883Z,90.43
2022-10-26T16:27:35.963Z,90.75
2022-10-26T16:30:04.927Z,90.33
2022-10-26T16:32:33.077Z,90.43
2022-10-26T16:35:01.228Z,90.32
2022-10-26T16:37:31.382Z,90.29
2022-10-26T16:39:59.555Z,91.17
2022-10-26T16:42:28.536Z,92.09
2022-10-26T16:45:00.139Z,92.13
2022-10-26T16:47:35.814Z,92.81
2022-10-26T16:50:04.893Z,92.98
2022-10-26T16:52:34.657Z,92.94
2022-10-26T16:55:03.935Z,93.11
2022-10-26T16:57:32.962Z,93.64
2022-10-26T17:00:01.041Z,93.51
2022-10-26T17:02:29.322Z,93.81
2022-10-26T17:04:59.335Z,94.43
2022-10-26T17:07:29.601Z,94.27
2022-10-26T17:09:58.201Z,94.53
2022-10-26T17:15:00.738Z,94.18
2022-10-26T17:17:29.342Z,93.47
2022-10-26T17:19:58.557Z,93.47
2022-10-26T17:22:27.350Z,93.02
2022-10-26T17:24:55.889Z,92.87
2022-10-26T17:27:24.199Z,92.54
2022-10-26T17:29:53.054Z,92.65
2022-10-26T17:32:22.307Z,93.95
2022-10-26T17:34:50.637Z,93.92
2022-10-26T17:37:19.492Z,94.74
2022-10-26T17:39:47.650Z,95.64
2022-10-26T17:42:15.997Z,96.24
2022-10-26T17:44:44.712Z,97.43
2022-10-26T17:47:13.009Z,97.15
2022-10-26T17:49:41.074Z,97.49
2022-10-26T17:52:11.169Z,97.29
2022-10-26T17:54:39.596Z,97.56
2022-10-26T17:57:08.153Z,97.41
2022-10-26T17:59:36.986Z,98.36
2022-10-26T18:02:05.444Z,98.48
2022-10-26T18:04:34.227Z,99.42
2022-10-26T18:07:02.470Z,98.80
2022-10-26T18:09:30.803Z,98.61
2022-10-26T18:11:59.393Z,98.52
2022-10-26T18:14:36.081Z,98.85
2022-10-26T18:17:04.804Z,99.63
2022-10-26T18:19:33.345Z,98.88
2022-10-26T18:22:01.763Z,98.26
2022-10-26T18:24:30.447Z,98.27
2022-10-26T18:26:58.585Z,98.24
2022-10-26T18:29:27.365Z,97.97
2022-10-26T18:31:56.874Z,97.47
2022-10-26T18:34:25.339Z,97.64
2022-10-26T18:36:55.055Z,98.78
2022-10-26T18:39:24.280Z,99.65
2022-10-26T18:41:53.578Z,100.00
2022-10-26T18:44:23.051Z,100.00
2022-10-26T18:46:54.524Z,100.00
2022-10-26T18:49:22.747Z,100.00
2022-10-26T18:51:51.338Z,100.00
2022-10-26T18:54:20.151Z,100.00
2022-10-26T18:56:48.578Z,100.00
2022-10-26T18:59:21.171Z,100.00
2022-10-26T19:01:50.211Z,100.00
2022-10-26T19:04:19.245Z,100.00
2022-10-26T19:06:47.947Z,100.00
2022-10-26T19:09:18.449Z,100.00
2022-10-26T19:11:47.015Z,100.00
2022-10-26T19:14:15.450Z,100.00
2022-10-26T19:16:47.182Z,100.00
2022-10-26T19:19:17.693Z,100.00
2022-10-26T19:21:48.048Z,100.00
2022-10-26T19:24:22.473Z,100.00
2022-10-26T19:26:52.119Z,100.00
2022-10-26T19:29:20.693Z,100.00
2022-10-26T19:31:53.054Z,100.00
2022-10-26T19:34:22.541Z,100.00
2022-10-26T19:36:50.836Z,100.00
2022-10-26T19:39:19.582Z,100.00
2022-10-26T19:41:49.416Z,100.00
2022-10-26T19:44:19.676Z,100.00
2022-10-26T19:46:49.779Z,100.00
2022-10-26T19:49:18.617Z,100.00
2022-10-26T19:51:48.301Z,100.00
2022-10-26T19:54:19.000Z,100.00
2022-10-26T19:56:47.265Z,100.00
2022-10-26T19:59:15.968Z,100.00
2022-10-26T20:01:44.829Z,100.00
2022-10-26T20:04:13.375Z,100.00
2022-10-26T20:06:46.640Z,100.00
2022-10-26T20:09:19.086Z,100.00
2022-10-26T20:11:47.838Z,100.00
2022-10-26T20:14:16.235Z,100.00
2022-10-26T20:16:45.202Z,100.00
2022-10-26T20:19:13.630Z,100.00
2022-10-26T20:21:41.669Z,100.00
2022-10-26T20:24:10.515Z,100.00
2022-10-26T20:26:40.005Z,100.00
2022-10-26T20:29:08.362Z,100.00
2022-10-26T20:31:37.390Z,100.00
2022-10-26T20:34:05.787Z,100.00
2022-10-26T20:36:34.544Z,100.00
2022-10-26T20:39:04.776Z,100.00
2022-10-26T20:41:33.469Z,100.00
2022-10-26T20:44:02.151Z,100.00
2022-10-26T20:46:30.914Z,100.00
2022-10-26T20:48:59.424Z,100.00
2022-10-26T20:51:47.827Z,100.00
2022-10-26T20:54:33.736Z,100.00
2022-10-26T20:57:02.968Z,100.00
2022-10-26T20:59:51.922Z,100.00
2022-10-26T21:02:22.410Z,100.00
2022-10-26T21:04:50.740Z,100.00
2022-10-26T21:07:18.758Z,100.00
2022-10-26T21:09:47.275Z,100.00
2022-10-26T21:12:15.699Z,100.00
2022-10-26T21:14:43.765Z,100.00
2022-10-26T21:17:12.107Z,100.00
2022-10-26T21:19:41.864Z,100.00
2022-10-26T21:22:09.987Z,100.00
2022-10-26T21:24:38.344Z,100.00
2022-10-26T21:27:06.692Z,100.00
2022-10-26T21:29:34.859Z,100.00
2022-10-26T21:32:03.016Z,100.00
2022-10-26T21:34:31.263Z,100.00
2022-10-26T21:36:59.426Z,100.00
2022-10-26T21:39:27.890Z,100.00
2022-10-26T21:41:56.284Z,100.00
2022-10-26T21:44:39.910Z,100.00
2022-10-26T21:47:10.658Z,100.00
2022-10-26T21:52:13.284Z,100.00
2022-10-26T21:54:41.745Z,100.00
2022-10-26T21:57:09.852Z,100.00
2022-10-26T21:59:38.441Z,100.00
2022-10-26T22:02:06.633Z,100.00
2022-10-26T22:04:35.022Z,100.00
2022-10-26T22:07:03.311Z,100.00
2022-10-26T22:09:32.794Z,100.00
2022-10-26T22:12:04.010Z,100.00
2022-10-26T22:14:32.210Z,100.00
2022-10-26T22:17:00.280Z,100.00
2022-10-26T22:19:28.580Z,100.00
2022-10-26T22:21:56.879Z,100.00
2022-10-26T22:24:24.961Z,100.00
2022-10-26T22:26:53.393Z,100.00
2022-10-26T22:29:22.239Z,100.00
2022-10-26T22:31:50.750Z,100.00
2022-10-26T22:34:19.177Z,100.00
2022-10-26T22:36:47.477Z,100.00
2022-10-26T22:39:15.483Z,100.00
2022-10-26T22:41:44.398Z,100.00
2022-10-26T22:44:12.615Z,100.00
2022-10-26T22:46:44.958Z,100.00
2022-10-26T22:49:13.694Z,100.00
2022-10-26T22:51:41.808Z,100.00
2022-10-26T22:54:11.996Z,100.00
2022-10-26T22:56:41.165Z,100.00
2022-10-26T22:59:09.271Z,100.00
2022-10-26T23:01:39.438Z,100.00
2022-10-26T23:04:10.070Z,100.00
2022-10-26T23:06:38.609Z,100.00
2022-10-26T23:09:06.936Z,100.00
2022-10-26T23:11:35.446Z,100.00
2022-10-26T23:14:03.972Z,100.00
2022-10-26T23:16:32.610Z,100.00
2022-10-26T23:19:05.461Z,100.00
2022-10-26T23:21:33.458Z,100.00
2022-10-26T23:24:01.904Z,100.00
2022-10-26T23:26:33.239Z,100.00
2022-10-26T23:29:01.591Z,100.00
2022-10-26T23:31:30.729Z,100.00
2022-10-26T23:33:58.861Z,100.00
2022-10-26T23:36:27.275Z,100.00
2022-10-26T23:38:55.786Z,100.00
2022-10-26T23:41:24.383Z,100.00
2022-10-26T23:43:52.760Z,100.00
2022-10-26T23:46:20.851Z,100.00
2022-10-26T23:48:49.313Z,100.00
2022-10-26T23:51:17.709Z,100.00
2022-10-26T23:53:46.138Z,100.00
2022-10-26T23:56:14.351Z,100.00
2022-10-26T23:58:42.791Z,100.00
